sensor_id;sensor_type;location;lat;lon;timestamp;P1;durP1;ratioP1;P2;durP2;ratioP2
18512;SDS011;9385;48.380;9.744;2022-12-07T00:00:54;9.25;;;5.95;;
18512;SDS011;9385;48.380;9.744;2022-12-07T00:03:21;9.57;;;6.07;;
18512;SDS011;9385;48.380;9.744;2022-12-07T00:05:48;8.10;;;5.63;;
18512;SDS011;9385;48.380;9.744;2022-12-07T00:08:15;10.10;;;5.90;;
18512;SDS011;9385;48.380;9.744;2022-12-07T00:10:43;10.30;;;5.63;;
18512;SDS011;9385;48.380;9.744;2022-12-07T00:13:10;9.52;;;5.80;;
18512;SDS011;9385;48.380;9.744;2022-12-07T00:15:37;8.32;;;5.65;;
18512;SDS011;9385;48.380;9.744;2022-12-07T00:18:04;9.23;;;6.00;;
18512;SDS011;9385;48.380;9.744;2022-12-07T00:20:30;7.68;;;5.50;;
18512;SDS011;9385;48.380;9.744;2022-12-07T00:22:58;7.68;;;5.43;;
18512;SDS011;9385;48.380;9.744;2022-12-07T00:25:25;8.45;;;5.80;;
18512;SDS011;9385;48.380;9.744;2022-12-07T00:27:53;6.93;;;4.87;;
18512;SDS011;9385;48.380;9.744;2022-12-07T00:30:21;9.02;;;5.97;;
18512;SDS011;9385;48.380;9.744;2022-12-07T00:32:48;7.78;;;5.40;;
18512;SDS011;9385;48.380;9.744;2022-12-07T00:35:15;7.88;;;5.70;;
18512;SDS011;9385;48.380;9.744;2022-12-07T00:37:42;9.50;;;5.82;;
18512;SDS011;9385;48.380;9.744;2022-12-07T00:40:10;8.27;;;5.28;;
18512;SDS011;9385;48.380;9.744;2022-12-07T00:42:37;7.13;;;5.10;;
18512;SDS011;9385;48.380;9.744;2022-12-07T00:45:07;7.80;;;5.20;;
18512;SDS011;9385;48.380;9.744;2022-12-07T00:47:34;7.78;;;5.20;;
18512;SDS011;9385;48.380;9.744;2022-12-07T00:50:01;7.72;;;5.20;;
18512;SDS011;9385;48.380;9.744;2022-12-07T00:52:29;7.72;;;5.30;;
18512;SDS011;9385;48.380;9.744;2022-12-07T00:54:56;8.40;;;5.57;;
18512;SDS011;9385;48.380;9.744;2022-12-07T00:57:23;9.60;;;5.55;;
18512;SDS011;9385;48.380;9.744;2022-12-07T00:59:50;7.80;;;5.38;;
18512;SDS011;9385;48.380;9.744;2022-12-07T01:02:21;7.40;;;5.30;;
18512;SDS011;9385;48.380;9.744;2022-12-07T01:04:48;6.95;;;4.93;;
18512;SDS011;9385;48.380;9.744;2022-12-07T01:07:15;9.35;;;5.50;;
18512;SDS011;9385;48.380;9.744;2022-12-07T01:09:42;7.75;;;5.60;;
18512;SDS011;9385;48.380;9.744;2022-12-07T01:12:09;7.97;;;5.70;;
18512;SDS011;9385;48.380;9.744;2022-12-07T01:14:36;8.40;;;6.00;;
18512;SDS011;9385;48.380;9.744;2022-12-07T01:17:03;8.30;;;5.72;;
18512;SDS011;9385;48.380;9.744;2022-12-07T01:19:31;8.85;;;5.78;;
18512;SDS011;9385;48.380;9.744;2022-12-07T01:21:58;10.13;;;6.47;;
18512;SDS011;9385;48.380;9.744;2022-12-07T01:24:25;9.02;;;6.45;;
18512;SDS011;9385;48.380;9.744;2022-12-07T01:26:52;8.90;;;6.25;;
18512;SDS011;9385;48.380;9.744;2022-12-07T01:29:19;9.88;;;6.40;;
18512;SDS011;9385;48.380;9.744;2022-12-07T01:31:48;9.90;;;6.53;;
18512;SDS011;9385;48.380;9.744;2022-12-07T01:34:15;10.60;;;7.07;;
18512;SDS011;9385;48.380;9.744;2022-12-07T01:36:43;9.73;;;6.78;;
18512;SDS011;9385;48.380;9.744;2022-12-07T01:39:10;10.52;;;6.65;;
18512;SDS011;9385;48.380;9.744;2022-12-07T01:41:37;10.43;;;7.10;;
18512;SDS011;9385;48.380;9.744;2022-12-07T01:44:18;11.30;;;6.95;;
18512;SDS011;9385;48.380;9.744;2022-12-07T01:46:47;9.85;;;6.85;;
18512;SDS011;9385;48.380;9.744;2022-12-07T01:49:16;9.65;;;6.78;;
18512;SDS011;9385;48.380;9.744;2022-12-07T01:51:49;10.73;;;7.20;;
18512;SDS011;9385;48.380;9.744;2022-12-07T01:54:19;9.13;;;6.32;;
18512;SDS011;9385;48.380;9.744;2022-12-07T01:56:48;8.82;;;6.10;;
18512;SDS011;9385;48.380;9.744;2022-12-07T01:59:19;9.23;;;6.57;;
18512;SDS011;9385;48.380;9.744;2022-12-07T02:01:49;9.85;;;6.72;;
18512;SDS011;9385;48.380;9.744;2022-12-07T02:04:18;8.93;;;6.35;;
18512;SDS011;9385;48.380;9.744;2022-12-07T02:06:45;9.27;;;6.40;;
18512;SDS011;9385;48.380;9.744;2022-12-07T02:09:14;10.83;;;6.43;;
18512;SDS011;9385;48.380;9.744;2022-12-07T02:11:41;9.70;;;6.40;;
18512;SDS011;9385;48.380;9.744;2022-12-07T02:14:08;9.00;;;6.43;;
18512;SDS011;9385;48.380;9.744;2022-12-07T02:16:38;9.88;;;6.90;;
18512;SDS011;9385;48.380;9.744;2022-12-07T02:22:21;10.43;;;6.72;;
18512;SDS011;9385;48.380;9.744;2022-12-07T02:25:09;10.48;;;7.13;;
18512;SDS011;9385;48.380;9.744;2022-12-07T02:27:47;10.00;;;6.97;;
18512;SDS011;9385;48.380;9.744;2022-12-07T02:30:20;10.35;;;7.30;;
18512;SDS011;9385;48.380;9.744;2022-12-07T02:32:53;10.90;;;7.13;;
18512;SDS011;9385;48.380;9.744;2022-12-07T02:35:24;10.88;;;6.95;;
18512;SDS011;9385;48.380;9.744;2022-12-07T02:37:57;10.57;;;6.75;;
18512;SDS011;9385;48.380;9.744;2022-12-07T02:40:29;10.73;;;7.03;;
18512;SDS011;9385;48.380;9.744;2022-12-07T02:43:02;11.05;;;6.50;;
18512;SDS011;9385;48.380;9.744;2022-12-07T02:45:36;11.98;;;6.57;;
18512;SDS011;9385;48.380;9.744;2022-12-07T02:48:05;10.63;;;7.28;;
18512;SDS011;9385;48.380;9.744;2022-12-07T02:50:34;11.10;;;7.37;;
18512;SDS011;9385;48.380;9.744;2022-12-07T02:53:01;10.17;;;6.87;;
18512;SDS011;9385;48.380;9.744;2022-12-07T02:55:30;10.13;;;7.00;;
18512;SDS011;9385;48.380;9.744;2022-12-07T02:58:06;10.38;;;6.80;;
18512;SDS011;9385;48.380;9.744;2022-12-07T03:00:52;10.90;;;7.30;;
18512;SDS011;9385;48.380;9.744;2022-12-07T03:03:25;10.90;;;6.85;;
18512;SDS011;9385;48.380;9.744;2022-12-07T03:05:58;12.07;;;7.20;;
18512;SDS011;9385;48.380;9.744;2022-12-07T03:08:42;11.60;;;7.60;;
18512;SDS011;9385;48.380;9.744;2022-12-07T03:11:14;10.63;;;7.40;;
18512;SDS011;9385;48.380;9.744;2022-12-07T03:13:47;12.38;;;7.53;;
18512;SDS011;9385;48.380;9.744;2022-12-07T03:16:19;13.25;;;8.30;;
18512;SDS011;9385;48.380;9.744;2022-12-07T03:18:51;14.52;;;9.10;;
18512;SDS011;9385;48.380;9.744;2022-12-07T03:21:22;12.80;;;8.13;;
18512;SDS011;9385;48.380;9.744;2022-12-07T03:23:53;11.68;;;7.80;;
18512;SDS011;9385;48.380;9.744;2022-12-07T03:26:23;12.50;;;8.13;;
18512;SDS011;9385;48.380;9.744;2022-12-07T03:28:55;10.50;;;7.13;;
18512;SDS011;9385;48.380;9.744;2022-12-07T03:31:28;11.45;;;7.40;;
18512;SDS011;9385;48.380;9.744;2022-12-07T03:33:58;12.25;;;8.05;;
18512;SDS011;9385;48.380;9.744;2022-12-07T03:36:30;12.48;;;7.43;;
18512;SDS011;9385;48.380;9.744;2022-12-07T03:39:13;10.80;;;7.40;;
18512;SDS011;9385;48.380;9.744;2022-12-07T03:41:48;10.80;;;6.75;;
18512;SDS011;9385;48.380;9.744;2022-12-07T03:44:16;10.03;;;6.50;;
18512;SDS011;9385;48.380;9.744;2022-12-07T03:46:46;11.18;;;7.03;;
18512;SDS011;9385;48.380;9.744;2022-12-07T03:49:18;9.95;;;6.72;;
18512;SDS011;9385;48.380;9.744;2022-12-07T03:51:51;9.60;;;6.57;;
18512;SDS011;9385;48.380;9.744;2022-12-07T03:54:23;11.43;;;7.43;;
18512;SDS011;9385;48.380;9.744;2022-12-07T03:56:54;11.15;;;6.65;;
18512;SDS011;9385;48.380;9.744;2022-12-07T03:59:23;9.48;;;6.00;;
18512;SDS011;9385;48.380;9.744;2022-12-07T04:01:53;8.77;;;5.87;;
18512;SDS011;9385;48.380;9.744;2022-12-07T04:04:21;9.98;;;6.53;;
18512;SDS011;9385;48.380;9.744;2022-12-07T04:06:49;9.05;;;5.88;;
18512;SDS011;9385;48.380;9.744;2022-12-07T04:09:16;9.05;;;6.10;;
18512;SDS011;9385;48.380;9.744;2022-12-07T04:11:43;10.27;;;5.97;;
18512;SDS011;9385;48.380;9.744;2022-12-07T04:14:10;10.13;;;6.70;;
18512;SDS011;9385;48.380;9.744;2022-12-07T04:16:46;10.05;;;6.57;;
18512;SDS011;9385;48.380;9.744;2022-12-07T04:19:15;10.38;;;6.38;;
18512;SDS011;9385;48.380;9.744;2022-12-07T04:21:43;11.10;;;6.88;;
18512;SDS011;9385;48.380;9.744;2022-12-07T04:24:11;12.07;;;7.88;;
18512;SDS011;9385;48.380;9.744;2022-12-07T04:26:39;27.88;;;16.27;;
18512;SDS011;9385;48.380;9.744;2022-12-07T04:29:06;13.27;;;7.45;;
18512;SDS011;9385;48.380;9.744;2022-12-07T04:31:33;9.45;;;6.28;;
18512;SDS011;9385;48.380;9.744;2022-12-07T04:34:00;10.23;;;7.00;;
18512;SDS011;9385;48.380;9.744;2022-12-07T04:36:28;10.00;;;5.80;;
18512;SDS011;9385;48.380;9.744;2022-12-07T04:38:56;9.10;;;5.90;;
18512;SDS011;9385;48.380;9.744;2022-12-07T04:41:23;7.37;;;5.33;;
18512;SDS011;9385;48.380;9.744;2022-12-07T04:43:53;7.07;;;4.90;;
18512;SDS011;9385;48.380;9.744;2022-12-07T04:46:21;6.33;;;4.50;;
18512;SDS011;9385;48.380;9.744;2022-12-07T04:48:49;5.80;;;4.10;;
18512;SDS011;9385;48.380;9.744;2022-12-07T04:51:18;6.57;;;4.30;;
18512;SDS011;9385;48.380;9.744;2022-12-07T04:53:47;5.70;;;3.83;;
18512;SDS011;9385;48.380;9.744;2022-12-07T04:56:15;7.40;;;4.80;;
18512;SDS011;9385;48.380;9.744;2022-12-07T04:58:43;7.25;;;4.43;;
18512;SDS011;9385;48.380;9.744;2022-12-07T05:01:11;6.50;;;4.50;;
18512;SDS011;9385;48.380;9.744;2022-12-07T05:03:39;7.97;;;5.03;;
18512;SDS011;9385;48.380;9.744;2022-12-07T05:06:07;7.85;;;4.90;;
18512;SDS011;9385;48.380;9.744;2022-12-07T05:08:35;8.02;;;5.55;;
18512;SDS011;9385;48.380;9.744;2022-12-07T05:11:05;7.15;;;5.15;;
18512;SDS011;9385;48.380;9.744;2022-12-07T05:13:33;7.25;;;4.82;;
18512;SDS011;9385;48.380;9.744;2022-12-07T05:16:00;6.40;;;4.68;;
18512;SDS011;9385;48.380;9.744;2022-12-07T05:18:27;8.20;;;4.78;;
18512;SDS011;9385;48.380;9.744;2022-12-07T05:20:54;7.00;;;4.45;;
18512;SDS011;9385;48.380;9.744;2022-12-07T05:23:21;6.72;;;4.88;;
18512;SDS011;9385;48.380;9.744;2022-12-07T05:25:48;7.97;;;4.90;;
18512;SDS011;9385;48.380;9.744;2022-12-07T05:28:16;8.80;;;5.28;;
18512;SDS011;9385;48.380;9.744;2022-12-07T05:30:43;9.50;;;5.72;;
18512;SDS011;9385;48.380;9.744;2022-12-07T05:33:10;8.97;;;5.50;;
18512;SDS011;9385;48.380;9.744;2022-12-07T05:35:37;8.10;;;4.65;;
18512;SDS011;9385;48.380;9.744;2022-12-07T05:38:04;7.30;;;4.60;;
18512;SDS011;9385;48.380;9.744;2022-12-07T05:40:30;8.43;;;4.90;;
18512;SDS011;9385;48.380;9.744;2022-12-07T05:42:57;7.78;;;4.88;;
18512;SDS011;9385;48.380;9.744;2022-12-07T05:45:25;7.03;;;4.63;;
18512;SDS011;9385;48.380;9.744;2022-12-07T05:47:51;6.45;;;4.47;;
18512;SDS011;9385;48.380;9.744;2022-12-07T05:50:18;6.78;;;4.70;;
18512;SDS011;9385;48.380;9.744;2022-12-07T05:52:45;7.17;;;4.30;;
18512;SDS011;9385;48.380;9.744;2022-12-07T05:55:12;8.03;;;4.80;;
18512;SDS011;9385;48.380;9.744;2022-12-07T05:57:39;6.82;;;4.50;;
18512;SDS011;9385;48.380;9.744;2022-12-07T06:00:27;6.40;;;4.18;;
18512;SDS011;9385;48.380;9.744;2022-12-07T06:02:53;7.60;;;4.70;;
18512;SDS011;9385;48.380;9.744;2022-12-07T06:05:20;9.15;;;4.63;;
18512;SDS011;9385;48.380;9.744;2022-12-07T06:07:47;11.60;;;5.00;;
18512;SDS011;9385;48.380;9.744;2022-12-07T06:10:14;9.52;;;4.88;;
18512;SDS011;9385;48.380;9.744;2022-12-07T06:12:41;8.02;;;5.20;;
18512;SDS011;9385;48.380;9.744;2022-12-07T06:15:08;7.82;;;4.70;;
18512;SDS011;9385;48.380;9.744;2022-12-07T06:17:39;7.00;;;3.90;;
18512;SDS011;9385;48.380;9.744;2022-12-07T06:20:06;5.72;;;3.63;;
18512;SDS011;9385;48.380;9.744;2022-12-07T06:22:33;7.13;;;4.28;;
18512;SDS011;9385;48.380;9.744;2022-12-07T06:25:00;6.10;;;3.67;;
18512;SDS011;9385;48.380;9.744;2022-12-07T06:27:28;7.15;;;3.72;;
18512;SDS011;9385;48.380;9.744;2022-12-07T06:29:57;6.20;;;3.92;;
18512;SDS011;9385;48.380;9.744;2022-12-07T06:32:24;6.18;;;3.97;;
18512;SDS011;9385;48.380;9.744;2022-12-07T06:34:53;5.65;;;3.45;;
18512;SDS011;9385;48.380;9.744;2022-12-07T06:37:20;8.20;;;3.90;;
18512;SDS011;9385;48.380;9.744;2022-12-07T06:39:46;6.10;;;3.88;;
18512;SDS011;9385;48.380;9.744;2022-12-07T06:42:13;5.72;;;3.60;;
18512;SDS011;9385;48.380;9.744;2022-12-07T06:44:40;6.85;;;3.70;;
18512;SDS011;9385;48.380;9.744;2022-12-07T06:47:07;6.07;;;3.78;;
18512;SDS011;9385;48.380;9.744;2022-12-07T06:49:34;6.35;;;3.97;;
18512;SDS011;9385;48.380;9.744;2022-12-07T06:52:02;9.17;;;3.80;;
18512;SDS011;9385;48.380;9.744;2022-12-07T06:54:30;5.40;;;3.65;;
18512;SDS011;9385;48.380;9.744;2022-12-07T06:56:57;5.83;;;3.70;;
18512;SDS011;9385;48.380;9.744;2022-12-07T06:59:24;6.05;;;3.47;;
18512;SDS011;9385;48.380;9.744;2022-12-07T07:01:51;6.25;;;4.00;;
18512;SDS011;9385;48.380;9.744;2022-12-07T07:04:18;7.60;;;4.10;;
18512;SDS011;9385;48.380;9.744;2022-12-07T07:06:45;6.72;;;4.30;;
18512;SDS011;9385;48.380;9.744;2022-12-07T07:09:13;8.85;;;4.50;;
18512;SDS011;9385;48.380;9.744;2022-12-07T07:11:40;6.32;;;3.90;;
18512;SDS011;9385;48.380;9.744;2022-12-07T07:14:07;6.63;;;3.90;;
18512;SDS011;9385;48.380;9.744;2022-12-07T07:16:34;7.28;;;3.50;;
18512;SDS011;9385;48.380;9.744;2022-12-07T07:19:01;5.68;;;3.67;;
18512;SDS011;9385;48.380;9.744;2022-12-07T07:21:28;5.85;;;3.55;;
18512;SDS011;9385;48.380;9.744;2022-12-07T07:23:54;5.13;;;3.58;;
18512;SDS011;9385;48.380;9.744;2022-12-07T07:26:23;6.20;;;3.93;;
18512;SDS011;9385;48.380;9.744;2022-12-07T07:28:50;6.10;;;4.15;;
18512;SDS011;9385;48.380;9.744;2022-12-07T07:31:17;8.23;;;5.25;;
18512;SDS011;9385;48.380;9.744;2022-12-07T07:33:44;9.20;;;5.70;;
18512;SDS011;9385;48.380;9.744;2022-12-07T07:36:12;10.23;;;6.88;;
18512;SDS011;9385;48.380;9.744;2022-12-07T07:38:39;11.90;;;7.15;;
18512;SDS011;9385;48.380;9.744;2022-12-07T07:41:06;8.13;;;4.90;;
18512;SDS011;9385;48.380;9.744;2022-12-07T07:43:34;8.65;;;4.80;;
18512;SDS011;9385;48.380;9.744;2022-12-07T07:46:01;8.73;;;5.03;;
18512;SDS011;9385;48.380;9.744;2022-12-07T07:48:28;8.20;;;4.93;;
18512;SDS011;9385;48.380;9.744;2022-12-07T07:50:55;8.48;;;5.15;;
18512;SDS011;9385;48.380;9.744;2022-12-07T07:53:22;17.45;;;9.93;;
18512;SDS011;9385;48.380;9.744;2022-12-07T07:55:52;17.95;;;10.73;;
18512;SDS011;9385;48.380;9.744;2022-12-07T07:58:19;8.75;;;5.03;;
18512;SDS011;9385;48.380;9.744;2022-12-07T08:00:48;10.93;;;6.30;;
18512;SDS011;9385;48.380;9.744;2022-12-07T08:03:14;12.65;;;7.13;;
18512;SDS011;9385;48.380;9.744;2022-12-07T08:05:41;11.30;;;6.90;;
18512;SDS011;9385;48.380;9.744;2022-12-07T08:08:09;11.35;;;7.10;;
18512;SDS011;9385;48.380;9.744;2022-12-07T08:10:35;17.70;;;6.22;;
18512;SDS011;9385;48.380;9.744;2022-12-07T08:13:02;10.77;;;5.90;;
18512;SDS011;9385;48.380;9.744;2022-12-07T08:15:39;11.38;;;5.95;;
18512;SDS011;9385;48.380;9.744;2022-12-07T08:18:08;16.43;;;7.60;;
18512;SDS011;9385;48.380;9.744;2022-12-07T08:20:36;18.90;;;8.93;;
18512;SDS011;9385;48.380;9.744;2022-12-07T08:23:03;16.88;;;7.70;;
18512;SDS011;9385;48.380;9.744;2022-12-07T08:25:31;14.52;;;7.18;;
18512;SDS011;9385;48.380;9.744;2022-12-07T08:27:59;13.48;;;5.97;;
18512;SDS011;9385;48.380;9.744;2022-12-07T08:30:26;14.07;;;6.82;;
18512;SDS011;9385;48.380;9.744;2022-12-07T08:32:53;14.88;;;6.20;;
18512;SDS011;9385;48.380;9.744;2022-12-07T08:35:21;12.48;;;6.05;;
18512;SDS011;9385;48.380;9.744;2022-12-07T08:37:49;15.27;;;6.63;;
18512;SDS011;9385;48.380;9.744;2022-12-07T08:40:16;13.73;;;6.13;;
18512;SDS011;9385;48.380;9.744;2022-12-07T08:42:44;12.35;;;6.07;;
18512;SDS011;9385;48.380;9.744;2022-12-07T08:45:14;20.23;;;7.95;;
18512;SDS011;9385;48.380;9.744;2022-12-07T08:47:43;11.98;;;6.82;;
18512;SDS011;9385;48.380;9.744;2022-12-07T08:50:13;11.68;;;6.35;;
18512;SDS011;9385;48.380;9.744;2022-12-07T08:52:42;15.23;;;6.47;;
18512;SDS011;9385;48.380;9.744;2022-12-07T08:55:09;13.17;;;6.50;;
18512;SDS011;9385;48.380;9.744;2022-12-07T08:57:38;13.80;;;7.18;;
18512;SDS011;9385;48.380;9.744;2022-12-07T09:00:06;17.88;;;6.70;;
18512;SDS011;9385;48.380;9.744;2022-12-07T09:02:34;15.95;;;7.50;;
18512;SDS011;9385;48.380;9.744;2022-12-07T09:05:01;24.20;;;12.40;;
18512;SDS011;9385;48.380;9.744;2022-12-07T09:07:28;19.35;;;9.80;;
18512;SDS011;9385;48.380;9.744;2022-12-07T09:09:58;13.60;;;7.03;;
18512;SDS011;9385;48.380;9.744;2022-12-07T09:12:25;12.40;;;6.28;;
18512;SDS011;9385;48.380;9.744;2022-12-07T09:14:52;17.80;;;8.13;;
18512;SDS011;9385;48.380;9.744;2022-12-07T09:17:19;17.13;;;10.25;;
18512;SDS011;9385;48.380;9.744;2022-12-07T09:19:46;15.27;;;7.60;;
18512;SDS011;9385;48.380;9.744;2022-12-07T09:22:13;11.15;;;6.50;;
18512;SDS011;9385;48.380;9.744;2022-12-07T09:24:40;13.02;;;7.82;;
18512;SDS011;9385;48.380;9.744;2022-12-07T09:27:08;17.67;;;8.90;;
18512;SDS011;9385;48.380;9.744;2022-12-07T09:29:35;55.50;;;30.70;;
18512;SDS011;9385;48.380;9.744;2022-12-07T09:32:02;7.40;;;3.60;;
18512;SDS011;9385;48.380;9.744;2022-12-07T09:34:30;8.48;;;4.45;;
18512;SDS011;9385;48.380;9.744;2022-12-07T09:36:57;44.57;;;19.20;;
18512;SDS011;9385;48.380;9.744;2022-12-07T09:39:24;19.47;;;9.57;;
18512;SDS011;9385;48.380;9.744;2022-12-07T09:41:51;17.10;;;8.35;;
18512;SDS011;9385;48.380;9.744;2022-12-07T09:44:21;32.03;;;14.20;;
18512;SDS011;9385;48.380;9.744;2022-12-07T09:46:51;16.73;;;8.35;;
18512;SDS011;9385;48.380;9.744;2022-12-07T09:49:19;6.65;;;3.63;;
18512;SDS011;9385;48.380;9.744;2022-12-07T09:51:47;4.72;;;2.60;;
18512;SDS011;9385;48.380;9.744;2022-12-07T09:54:25;10.32;;;5.85;;
18512;SDS011;9385;48.380;9.744;2022-12-07T09:56:51;5.20;;;2.75;;
18512;SDS011;9385;48.380;9.744;2022-12-07T09:59:20;16.02;;;7.72;;
18512;SDS011;9385;48.380;9.744;2022-12-07T10:01:48;30.45;;;14.35;;
18512;SDS011;9385;48.380;9.744;2022-12-07T10:04:16;11.17;;;6.50;;
18512;SDS011;9385;48.380;9.744;2022-12-07T10:06:46;8.73;;;5.20;;
18512;SDS011;9385;48.380;9.744;2022-12-07T10:09:16;4.83;;;3.13;;
18512;SDS011;9385;48.380;9.744;2022-12-07T10:12:01;7.13;;;4.13;;
18512;SDS011;9385;48.380;9.744;2022-12-07T10:14:31;3.90;;;2.33;;
18512;SDS011;9385;48.380;9.744;2022-12-07T10:17:00;3.15;;;1.98;;
18512;SDS011;9385;48.380;9.744;2022-12-07T10:19:28;3.00;;;2.10;;
18512;SDS011;9385;48.380;9.744;2022-12-07T10:21:59;2.65;;;1.75;;
18512;SDS011;9385;48.380;9.744;2022-12-07T10:24:28;3.07;;;1.90;;
18512;SDS011;9385;48.380;9.744;2022-12-07T10:26:55;2.90;;;2.00;;
18512;SDS011;9385;48.380;9.744;2022-12-07T10:29:23;2.88;;;2.00;;
18512;SDS011;9385;48.380;9.744;2022-12-07T10:31:56;3.43;;;2.27;;
18512;SDS011;9385;48.380;9.744;2022-12-07T10:34:26;3.45;;;2.20;;
18512;SDS011;9385;48.380;9.744;2022-12-07T10:37:07;2.38;;;1.70;;
18512;SDS011;9385;48.380;9.744;2022-12-07T10:39:41;4.00;;;2.10;;
18512;SDS011;9385;48.380;9.744;2022-12-07T10:42:19;3.72;;;2.10;;
18512;SDS011;9385;48.380;9.744;2022-12-07T10:44:47;3.35;;;2.20;;
18512;SDS011;9385;48.380;9.744;2022-12-07T10:50:12;3.53;;;2.10;;
18512;SDS011;9385;48.380;9.744;2022-12-07T10:52:52;3.65;;;1.95;;
18512;SDS011;9385;48.380;9.744;2022-12-07T10:55:33;3.03;;;2.13;;
18512;SDS011;9385;48.380;9.744;2022-12-07T11:01:04;2.40;;;1.70;;
18512;SDS011;9385;48.380;9.744;2022-12-07T11:06:34;13.60;;;2.40;;
18512;SDS011;9385;48.380;9.744;2022-12-07T11:12:03;2.78;;;1.80;;
18512;SDS011;9385;48.380;9.744;2022-12-07T11:14:40;2.75;;;1.90;;
18512;SDS011;9385;48.380;9.744;2022-12-07T11:17:16;2.63;;;1.75;;
18512;SDS011;9385;48.380;9.744;2022-12-07T11:19:52;2.83;;;2.00;;
18512;SDS011;9385;48.380;9.744;2022-12-07T11:22:29;3.97;;;1.80;;
18512;SDS011;9385;48.380;9.744;2022-12-07T11:25:14;4.57;;;2.15;;
18512;SDS011;9385;48.380;9.744;2022-12-07T11:27:52;2.88;;;1.73;;
18512;SDS011;9385;48.380;9.744;2022-12-07T11:30:29;3.03;;;2.00;;
18512;SDS011;9385;48.380;9.744;2022-12-07T11:33:09;2.65;;;1.70;;
18512;SDS011;9385;48.380;9.744;2022-12-07T11:35:48;2.10;;;1.60;;
18512;SDS011;9385;48.380;9.744;2022-12-07T11:38:26;2.85;;;1.60;;
18512;SDS011;9385;48.380;9.744;2022-12-07T11:41:02;1.90;;;1.50;;
18512;SDS011;9385;48.380;9.744;2022-12-07T11:43:41;2.58;;;1.70;;
18512;SDS011;9385;48.380;9.744;2022-12-07T11:46:16;2.08;;;1.35;;
18512;SDS011;9385;48.380;9.744;2022-12-07T11:48:45;3.78;;;1.40;;
18512;SDS011;9385;48.380;9.744;2022-12-07T11:51:18;1.75;;;1.30;;
18512;SDS011;9385;48.380;9.744;2022-12-07T11:53:48;2.00;;;1.30;;
18512;SDS011;9385;48.380;9.744;2022-12-07T11:56:19;2.33;;;1.30;;
18512;SDS011;9385;48.380;9.744;2022-12-07T11:58:49;2.22;;;1.30;;
18512;SDS011;9385;48.380;9.744;2022-12-07T12:01:22;1.90;;;1.50;;
18512;SDS011;9385;48.380;9.744;2022-12-07T12:04:01;2.20;;;1.37;;
18512;SDS011;9385;48.380;9.744;2022-12-07T12:06:40;2.05;;;1.40;;
18512;SDS011;9385;48.380;9.744;2022-12-07T12:09:11;1.92;;;1.42;;
18512;SDS011;9385;48.380;9.744;2022-12-07T12:11:46;3.03;;;1.40;;
18512;SDS011;9385;48.380;9.744;2022-12-07T12:14:30;1.98;;;1.40;;
18512;SDS011;9385;48.380;9.744;2022-12-07T12:20:15;3.75;;;1.40;;
18512;SDS011;9385;48.380;9.744;2022-12-07T12:22:50;2.17;;;1.50;;
18512;SDS011;9385;48.380;9.744;2022-12-07T12:25:21;2.13;;;1.35;;
18512;SDS011;9385;48.380;9.744;2022-12-07T12:27:51;2.88;;;1.90;;
18512;SDS011;9385;48.380;9.744;2022-12-07T12:30:26;2.42;;;1.77;;
18512;SDS011;9385;48.380;9.744;2022-12-07T12:33:01;2.05;;;1.58;;
18512;SDS011;9385;48.380;9.744;2022-12-07T12:35:33;2.50;;;1.65;;
18512;SDS011;9385;48.380;9.744;2022-12-07T12:38:26;2.22;;;1.60;;
18512;SDS011;9385;48.380;9.744;2022-12-07T12:40:56;2.13;;;1.58;;
18512;SDS011;9385;48.380;9.744;2022-12-07T12:49:32;6.68;;;1.73;;
18512;SDS011;9385;48.380;9.744;2022-12-07T12:52:01;2.10;;;1.60;;
18512;SDS011;9385;48.380;9.744;2022-12-07T12:55:24;3.58;;;1.55;;
18512;SDS011;9385;48.380;9.744;2022-12-07T13:04:14;2.15;;;1.30;;
18512;SDS011;9385;48.380;9.744;2022-12-07T13:06:54;1.77;;;1.20;;
18512;SDS011;9385;48.380;9.744;2022-12-07T13:09:22;2.03;;;1.35;;
18512;SDS011;9385;48.380;9.744;2022-12-07T13:11:57;2.95;;;1.48;;
18512;SDS011;9385;48.380;9.744;2022-12-07T13:14:40;2.38;;;1.35;;
18512;SDS011;9385;48.380;9.744;2022-12-07T13:17:09;2.65;;;1.40;;
18512;SDS011;9385;48.380;9.744;2022-12-07T13:25:21;1.85;;;1.20;;
18512;SDS011;9385;48.380;9.744;2022-12-07T13:28:09;2.40;;;1.60;;
18512;SDS011;9385;48.380;9.744;2022-12-07T13:30:43;3.35;;;1.73;;
18512;SDS011;9385;48.380;9.744;2022-12-07T13:33:17;3.88;;;2.15;;
18512;SDS011;9385;48.380;9.744;2022-12-07T13:35:45;2.70;;;1.70;;
18512;SDS011;9385;48.380;9.744;2022-12-07T13:38:22;3.15;;;1.50;;
18512;SDS011;9385;48.380;9.744;2022-12-07T13:41:02;3.53;;;1.30;;
18512;SDS011;9385;48.380;9.744;2022-12-07T13:43:41;1.38;;;1.10;;
18512;SDS011;9385;48.380;9.744;2022-12-07T13:46:14;2.15;;;1.40;;
18512;SDS011;9385;48.380;9.744;2022-12-07T13:48:44;1.55;;;1.23;;
18512;SDS011;9385;48.380;9.744;2022-12-07T13:51:17;2.35;;;1.40;;
18512;SDS011;9385;48.380;9.744;2022-12-07T13:53:46;1.95;;;1.30;;
18512;SDS011;9385;48.380;9.744;2022-12-07T13:56:14;1.58;;;1.20;;
18512;SDS011;9385;48.380;9.744;2022-12-07T13:58:43;1.57;;;1.10;;
18512;SDS011;9385;48.380;9.744;2022-12-07T14:01:10;1.63;;;1.20;;
18512;SDS011;9385;48.380;9.744;2022-12-07T14:03:38;1.65;;;1.30;;
18512;SDS011;9385;48.380;9.744;2022-12-07T14:06:17;1.80;;;1.30;;
18512;SDS011;9385;48.380;9.744;2022-12-07T14:08:50;1.43;;;1.20;;
18512;SDS011;9385;48.380;9.744;2022-12-07T14:11:31;2.92;;;1.50;;
18512;SDS011;9385;48.380;9.744;2022-12-07T14:14:00;2.30;;;1.40;;
18512;SDS011;9385;48.380;9.744;2022-12-07T14:16:28;2.83;;;1.30;;
18512;SDS011;9385;48.380;9.744;2022-12-07T14:18:57;2.58;;;1.70;;
18512;SDS011;9385;48.380;9.744;2022-12-07T14:21:26;4.18;;;1.60;;
18512;SDS011;9385;48.380;9.744;2022-12-07T14:26:46;2.80;;;1.30;;
18512;SDS011;9385;48.380;9.744;2022-12-07T14:29:27;7.70;;;2.28;;
18512;SDS011;9385;48.380;9.744;2022-12-07T14:31:57;3.08;;;1.60;;
18512;SDS011;9385;48.380;9.744;2022-12-07T14:34:25;4.20;;;1.70;;
18512;SDS011;9385;48.380;9.744;2022-12-07T14:36:52;3.10;;;2.00;;
18512;SDS011;9385;48.380;9.744;2022-12-07T14:39:19;3.88;;;2.30;;
18512;SDS011;9385;48.380;9.744;2022-12-07T14:41:46;2.78;;;1.50;;
18512;SDS011;9385;48.380;9.744;2022-12-07T14:44:16;3.13;;;1.47;;
18512;SDS011;9385;48.380;9.744;2022-12-07T14:46:46;2.47;;;1.60;;
18512;SDS011;9385;48.380;9.744;2022-12-07T14:49:13;2.30;;;1.60;;
18512;SDS011;9385;48.380;9.744;2022-12-07T14:51:40;2.65;;;1.70;;
18512;SDS011;9385;48.380;9.744;2022-12-07T14:54:12;2.67;;;1.58;;
18512;SDS011;9385;48.380;9.744;2022-12-07T14:56:43;3.10;;;1.80;;
18512;SDS011;9385;48.380;9.744;2022-12-07T14:59:11;3.00;;;1.60;;
18512;SDS011;9385;48.380;9.744;2022-12-07T15:01:38;1.85;;;1.30;;
18512;SDS011;9385;48.380;9.744;2022-12-07T15:04:06;1.65;;;1.13;;
18512;SDS011;9385;48.380;9.744;2022-12-07T15:06:33;2.30;;;1.30;;
18512;SDS011;9385;48.380;9.744;2022-12-07T15:09:00;3.70;;;1.65;;
18512;SDS011;9385;48.380;9.744;2022-12-07T15:11:28;1.77;;;1.23;;
18512;SDS011;9385;48.380;9.744;2022-12-07T15:13:55;2.60;;;1.30;;
18512;SDS011;9385;48.380;9.744;2022-12-07T15:16:34;3.60;;;2.10;;
18512;SDS011;9385;48.380;9.744;2022-12-07T15:19:02;3.08;;;1.60;;
18512;SDS011;9385;48.380;9.744;2022-12-07T15:21:30;1.83;;;1.20;;
18512;SDS011;9385;48.380;9.744;2022-12-07T15:23:57;10.93;;;2.05;;
18512;SDS011;9385;48.380;9.744;2022-12-07T15:26:24;1.85;;;1.10;;
18512;SDS011;9385;48.380;9.744;2022-12-07T15:28:52;1.42;;;0.95;;
18512;SDS011;9385;48.380;9.744;2022-12-07T15:31:19;3.92;;;1.80;;
18512;SDS011;9385;48.380;9.744;2022-12-07T15:33:46;2.50;;;1.50;;
18512;SDS011;9385;48.380;9.744;2022-12-07T15:36:16;1.80;;;1.30;;
18512;SDS011;9385;48.380;9.744;2022-12-07T15:38:48;2.80;;;1.35;;
18512;SDS011;9385;48.380;9.744;2022-12-07T15:41:16;2.63;;;1.40;;
18512;SDS011;9385;48.380;9.744;2022-12-07T15:43:43;3.45;;;1.73;;
18512;SDS011;9385;48.380;9.744;2022-12-07T15:46:31;3.83;;;1.60;;
18512;SDS011;9385;48.380;9.744;2022-12-07T15:48:59;2.47;;;1.42;;
18512;SDS011;9385;48.380;9.744;2022-12-07T15:51:26;2.33;;;1.70;;
18512;SDS011;9385;48.380;9.744;2022-12-07T15:53:54;2.22;;;1.65;;